sensor_id;sensor_type;location;lat;lon;timestamp;P1;durP1;ratioP1;P2;durP2;ratioP2
1128;SDS011;553;51.038;7.216;2024-01-27T00:01:53;11.80;;;3.80;;
1128;SDS011;553;51.038;7.216;2024-01-27T00:04:20;18.50;;;4.50;;
1128;SDS011;553;51.038;7.216;2024-01-27T00:06:46;12.40;;;4.00;;
1128;SDS011;553;51.038;7.216;2024-01-27T00:09:14;13.70;;;3.20;;
1128;SDS011;553;51.038;7.216;2024-01-27T00:11:41;17.33;;;4.37;;
1128;SDS011;553;51.038;7.216;2024-01-27T00:14:08;13.87;;;4.10;;
1128;SDS011;553;51.038;7.216;2024-01-27T00:16:34;21.40;;;4.17;;
1128;SDS011;553;51.038;7.216;2024-01-27T00:19:01;12.93;;;4.03;;
1128;SDS011;553;51.038;7.216;2024-01-27T00:21:28;14.10;;;4.13;;
1128;SDS011;553;51.038;7.216;2024-01-27T00:23:55;14.67;;;4.77;;
1128;SDS011;553;51.038;7.216;2024-01-27T00:26:27;12.17;;;3.93;;
1128;SDS011;553;51.038;7.216;2024-01-27T00:28:54;18.00;;;4.80;;
1128;SDS011;553;51.038;7.216;2024-01-27T00:31:21;18.13;;;4.90;;
1128;SDS011;553;51.038;7.216;2024-01-27T00:33:47;10.17;;;3.80;;
1128;SDS011;553;51.038;7.216;2024-01-27T00:36:14;14.97;;;3.47;;
1128;SDS011;553;51.038;7.216;2024-01-27T00:38:41;10.30;;;3.20;;
1128;SDS011;553;51.038;7.216;2024-01-27T00:41:08;18.70;;;3.90;;
1128;SDS011;553;51.038;7.216;2024-01-27T00:43:38;11.07;;;3.40;;
1128;SDS011;553;51.038;7.216;2024-01-27T00:46:05;16.67;;;4.70;;
1128;SDS011;553;51.038;7.216;2024-01-27T00:48:32;10.80;;;3.07;;
1128;SDS011;553;51.038;7.216;2024-01-27T00:50:59;11.27;;;4.00;;
1128;SDS011;553;51.038;7.216;2024-01-27T00:53:26;15.80;;;4.63;;
1128;SDS011;553;51.038;7.216;2024-01-27T00:55:52;12.07;;;3.50;;
1128;SDS011;553;51.038;7.216;2024-01-27T00:58:20;8.50;;;3.60;;
1128;SDS011;553;51.038;7.216;2024-01-27T01:00:46;13.43;;;3.73;;
1128;SDS011;553;51.038;7.216;2024-01-27T01:03:13;23.83;;;4.07;;
1128;SDS011;553;51.038;7.216;2024-01-27T01:05:40;9.63;;;2.63;;
1128;SDS011;553;51.038;7.216;2024-01-27T01:08:07;20.17;;;4.53;;
1128;SDS011;553;51.038;7.216;2024-01-27T01:10:34;7.93;;;3.90;;
1128;SDS011;553;51.038;7.216;2024-01-27T01:13:00;13.43;;;4.60;;
1128;SDS011;553;51.038;7.216;2024-01-27T01:15:27;12.23;;;3.50;;
1128;SDS011;553;51.038;7.216;2024-01-27T01:17:54;10.43;;;3.57;;
1128;SDS011;553;51.038;7.216;2024-01-27T01:20:21;17.00;;;4.67;;
1128;SDS011;553;51.038;7.216;2024-01-27T01:22:48;12.80;;;3.87;;
1128;SDS011;553;51.038;7.216;2024-01-27T01:25:15;11.73;;;3.90;;
1128;SDS011;553;51.038;7.216;2024-01-27T01:27:42;11.80;;;3.57;;
1128;SDS011;553;51.038;7.216;2024-01-27T01:30:08;8.70;;;3.50;;
1128;SDS011;553;51.038;7.216;2024-01-27T01:32:36;13.33;;;3.30;;
1128;SDS011;553;51.038;7.216;2024-01-27T01:35:03;10.03;;;3.63;;
1128;SDS011;553;51.038;7.216;2024-01-27T01:37:30;11.37;;;3.60;;
1128;SDS011;553;51.038;7.216;2024-01-27T01:39:56;12.33;;;3.67;;
1128;SDS011;553;51.038;7.216;2024-01-27T01:42:23;12.13;;;4.10;;
1128;SDS011;553;51.038;7.216;2024-01-27T01:44:51;11.60;;;3.20;;
1128;SDS011;553;51.038;7.216;2024-01-27T01:47:18;13.27;;;3.93;;
1128;SDS011;553;51.038;7.216;2024-01-27T01:49:45;6.90;;;3.23;;
1128;SDS011;553;51.038;7.216;2024-01-27T01:52:11;9.33;;;3.33;;
1128;SDS011;553;51.038;7.216;2024-01-27T01:54:38;13.63;;;4.53;;
1128;SDS011;553;51.038;7.216;2024-01-27T01:57:05;13.83;;;3.53;;
1128;SDS011;553;51.038;7.216;2024-01-27T01:59:33;10.40;;;3.17;;
1128;SDS011;553;51.038;7.216;2024-01-27T02:02:00;8.80;;;3.67;;
1128;SDS011;553;51.038;7.216;2024-01-27T02:04:27;9.90;;;3.67;;
1128;SDS011;553;51.038;7.216;2024-01-27T02:06:54;12.00;;;4.87;;
1128;SDS011;553;51.038;7.216;2024-01-27T02:09:21;12.20;;;4.57;;
1128;SDS011;553;51.038;7.216;2024-01-27T02:11:48;13.73;;;5.03;;
1128;SDS011;553;51.038;7.216;2024-01-27T02:14:15;11.73;;;3.50;;
1128;SDS011;553;51.038;7.216;2024-01-27T02:16:43;12.03;;;5.43;;
1128;SDS011;553;51.038;7.216;2024-01-27T02:19:10;18.33;;;4.97;;
1128;SDS011;553;51.038;7.216;2024-01-27T02:21:38;13.40;;;5.53;;
1128;SDS011;553;51.038;7.216;2024-01-27T02:24:06;12.00;;;5.80;;
1128;SDS011;553;51.038;7.216;2024-01-27T02:26:33;17.27;;;6.37;;
1128;SDS011;553;51.038;7.216;2024-01-27T02:29:00;11.20;;;4.13;;
1128;SDS011;553;51.038;7.216;2024-01-27T02:31:27;9.30;;;4.45;;
1128;SDS011;553;51.038;7.216;2024-01-27T02:33:54;12.15;;;4.65;;
1128;SDS011;553;51.038;7.216;2024-01-27T02:36:20;11.45;;;4.13;;
1128;SDS011;553;51.038;7.216;2024-01-27T02:38:47;10.20;;;3.90;;
1128;SDS011;553;51.038;7.216;2024-01-27T02:41:14;10.80;;;4.33;;
1128;SDS011;553;51.038;7.216;2024-01-27T02:43:41;10.73;;;3.83;;
1128;SDS011;553;51.038;7.216;2024-01-27T02:46:10;9.10;;;3.42;;
1128;SDS011;553;51.038;7.216;2024-01-27T02:48:41;11.90;;;4.15;;
1128;SDS011;553;51.038;7.216;2024-01-27T02:51:08;12.70;;;4.13;;
1128;SDS011;553;51.038;7.216;2024-01-27T02:53:36;8.47;;;3.50;;
1128;SDS011;553;51.038;7.216;2024-01-27T02:56:06;10.95;;;4.55;;
1128;SDS011;553;51.038;7.216;2024-01-27T02:58:33;7.72;;;3.42;;
1128;SDS011;553;51.038;7.216;2024-01-27T03:01:00;11.10;;;4.03;;
1128;SDS011;553;51.038;7.216;2024-01-27T03:03:27;10.10;;;3.60;;
1128;SDS011;553;51.038;7.216;2024-01-27T03:05:56;9.75;;;3.72;;
1128;SDS011;553;51.038;7.216;2024-01-27T03:08:22;13.40;;;3.90;;
1128;SDS011;553;51.038;7.216;2024-01-27T03:10:49;18.13;;;3.77;;
1128;SDS011;553;51.038;7.216;2024-01-27T03:13:16;14.25;;;4.65;;
1128;SDS011;553;51.038;7.216;2024-01-27T03:15:43;13.30;;;3.90;;
1128;SDS011;553;51.038;7.216;2024-01-27T03:18:10;14.73;;;4.78;;
1128;SDS011;553;51.038;7.216;2024-01-27T03:20:37;11.07;;;4.00;;
1128;SDS011;553;51.038;7.216;2024-01-27T03:23:03;17.90;;;5.03;;
1128;SDS011;553;51.038;7.216;2024-01-27T03:25:30;15.73;;;4.55;;
1128;SDS011;553;51.038;7.216;2024-01-27T03:27:57;10.93;;;4.37;;
1128;SDS011;553;51.038;7.216;2024-01-27T03:30:24;9.50;;;3.85;;
1128;SDS011;553;51.038;7.216;2024-01-27T03:32:51;21.58;;;7.35;;
1128;SDS011;553;51.038;7.216;2024-01-27T03:35:18;22.63;;;10.15;;
1128;SDS011;553;51.038;7.216;2024-01-27T03:37:44;18.67;;;7.20;;
1128;SDS011;553;51.038;7.216;2024-01-27T03:40:11;20.13;;;7.93;;
1128;SDS011;553;51.038;7.216;2024-01-27T03:42:38;20.70;;;8.95;;
1128;SDS011;553;51.038;7.216;2024-01-27T03:45:05;14.60;;;6.90;;
1128;SDS011;553;51.038;7.216;2024-01-27T03:47:32;12.73;;;6.22;;
1128;SDS011;553;51.038;7.216;2024-01-27T03:49:59;13.60;;;5.68;;
1128;SDS011;553;51.038;7.216;2024-01-27T03:52:26;15.07;;;6.40;;
1128;SDS011;553;51.038;7.216;2024-01-27T03:54:53;9.43;;;4.90;;
1128;SDS011;553;51.038;7.216;2024-01-27T03:57:21;14.48;;;5.50;;
1128;SDS011;553;51.038;7.216;2024-01-27T03:59:47;11.88;;;4.88;;
1128;SDS011;553;51.038;7.216;2024-01-27T04:02:14;13.93;;;6.63;;
1128;SDS011;553;51.038;7.216;2024-01-27T04:04:41;11.98;;;5.75;;
1128;SDS011;553;51.038;7.216;2024-01-27T04:07:08;14.85;;;5.95;;
1128;SDS011;553;51.038;7.216;2024-01-27T04:09:35;11.20;;;5.70;;
1128;SDS011;553;51.038;7.216;2024-01-27T04:12:02;16.40;;;5.68;;
1128;SDS011;553;51.038;7.216;2024-01-27T04:14:29;14.13;;;5.30;;
1128;SDS011;553;51.038;7.216;2024-01-27T04:16:55;14.93;;;4.88;;
1128;SDS011;553;51.038;7.216;2024-01-27T04:19:22;11.63;;;5.60;;
1128;SDS011;553;51.038;7.216;2024-01-27T04:21:49;12.60;;;4.78;;
1128;SDS011;553;51.038;7.216;2024-01-27T04:24:16;13.60;;;5.50;;
1128;SDS011;553;51.038;7.216;2024-01-27T04:26:43;14.75;;;6.00;;
1128;SDS011;553;51.038;7.216;2024-01-27T04:29:10;17.02;;;6.85;;
1128;SDS011;553;51.038;7.216;2024-01-27T04:31:41;13.75;;;6.07;;
1128;SDS011;553;51.038;7.216;2024-01-27T04:34:10;13.00;;;5.43;;
1128;SDS011;553;51.038;7.216;2024-01-27T04:36:37;16.55;;;6.65;;
1128;SDS011;553;51.038;7.216;2024-01-27T04:39:04;14.25;;;7.00;;
1128;SDS011;553;51.038;7.216;2024-01-27T04:41:31;17.42;;;5.90;;
1128;SDS011;553;51.038;7.216;2024-01-27T04:43:58;20.20;;;5.00;;
1128;SDS011;553;51.038;7.216;2024-01-27T04:46:25;17.73;;;5.40;;
1128;SDS011;553;51.038;7.216;2024-01-27T04:48:52;20.40;;;6.20;;
1128;SDS011;553;51.038;7.216;2024-01-27T04:51:19;14.15;;;5.90;;
1128;SDS011;553;51.038;7.216;2024-01-27T04:53:45;15.48;;;6.32;;
1128;SDS011;553;51.038;7.216;2024-01-27T04:56:13;14.52;;;6.15;;
1128;SDS011;553;51.038;7.216;2024-01-27T04:58:40;12.35;;;6.28;;
1128;SDS011;553;51.038;7.216;2024-01-27T05:01:07;8.57;;;4.85;;
1128;SDS011;553;51.038;7.216;2024-01-27T05:03:34;14.60;;;5.78;;
1128;SDS011;553;51.038;7.216;2024-01-27T05:06:02;11.57;;;5.72;;
1128;SDS011;553;51.038;7.216;2024-01-27T05:08:29;11.30;;;6.53;;
1128;SDS011;553;51.038;7.216;2024-01-27T05:10:56;15.30;;;5.65;;
1128;SDS011;553;51.038;7.216;2024-01-27T05:13:24;11.57;;;5.35;;
1128;SDS011;553;51.038;7.216;2024-01-27T05:15:51;14.00;;;6.35;;
1128;SDS011;553;51.038;7.216;2024-01-27T05:18:18;13.05;;;6.00;;
1128;SDS011;553;51.038;7.216;2024-01-27T05:20:45;12.18;;;5.50;;
1128;SDS011;553;51.038;7.216;2024-01-27T05:23:12;18.23;;;6.60;;
1128;SDS011;553;51.038;7.216;2024-01-27T05:25:39;14.82;;;6.30;;
1128;SDS011;553;51.038;7.216;2024-01-27T05:28:06;13.73;;;7.15;;
1128;SDS011;553;51.038;7.216;2024-01-27T05:30:32;9.65;;;5.25;;
1128;SDS011;553;51.038;7.216;2024-01-27T05:32:59;13.93;;;6.88;;
1128;SDS011;553;51.038;7.216;2024-01-27T05:35:26;15.25;;;6.20;;
1128;SDS011;553;51.038;7.216;2024-01-27T05:37:53;10.60;;;5.20;;
1128;SDS011;553;51.038;7.216;2024-01-27T05:40:20;12.52;;;5.85;;
1128;SDS011;553;51.038;7.216;2024-01-27T05:42:47;14.43;;;5.68;;
1128;SDS011;553;51.038;7.216;2024-01-27T05:45:15;13.13;;;5.75;;
1128;SDS011;553;51.038;7.216;2024-01-27T05:47:42;14.93;;;6.97;;
1128;SDS011;553;51.038;7.216;2024-01-27T05:50:09;18.35;;;6.25;;
1128;SDS011;553;51.038;7.216;2024-01-27T05:52:36;12.32;;;6.78;;
1128;SDS011;553;51.038;7.216;2024-01-27T05:55:03;11.38;;;5.50;;
1128;SDS011;553;51.038;7.216;2024-01-27T05:57:32;16.75;;;6.68;;
1128;SDS011;553;51.038;7.216;2024-01-27T05:59:59;14.45;;;6.63;;
1128;SDS011;553;51.038;7.216;2024-01-27T06:02:26;15.25;;;5.47;;
1128;SDS011;553;51.038;7.216;2024-01-27T06:04:53;19.05;;;6.70;;
1128;SDS011;553;51.038;7.216;2024-01-27T06:07:20;18.38;;;6.60;;
1128;SDS011;553;51.038;7.216;2024-01-27T06:09:47;20.83;;;6.45;;
1128;SDS011;553;51.038;7.216;2024-01-27T06:12:13;16.00;;;5.88;;
1128;SDS011;553;51.038;7.216;2024-01-27T06:14:40;9.50;;;5.40;;
1128;SDS011;553;51.038;7.216;2024-01-27T06:17:08;14.02;;;5.97;;
1128;SDS011;553;51.038;7.216;2024-01-27T06:19:35;13.20;;;5.70;;
1128;SDS011;553;51.038;7.216;2024-01-27T06:22:02;20.88;;;6.03;;
1128;SDS011;553;51.038;7.216;2024-01-27T06:24:32;13.43;;;6.85;;
1128;SDS011;553;51.038;7.216;2024-01-27T06:26:59;15.55;;;5.93;;
1128;SDS011;553;51.038;7.216;2024-01-27T06:29:25;17.55;;;7.18;;
1128;SDS011;553;51.038;7.216;2024-01-27T06:31:53;13.10;;;5.93;;
1128;SDS011;553;51.038;7.216;2024-01-27T06:34:20;14.63;;;5.93;;
1128;SDS011;553;51.038;7.216;2024-01-27T06:36:47;16.13;;;6.13;;
1128;SDS011;553;51.038;7.216;2024-01-27T06:39:13;10.52;;;5.30;;
1128;SDS011;553;51.038;7.216;2024-01-27T06:41:41;15.13;;;6.95;;
1128;SDS011;553;51.038;7.216;2024-01-27T06:44:08;19.23;;;7.13;;
1128;SDS011;553;51.038;7.216;2024-01-27T06:46:34;20.52;;;6.97;;
1128;SDS011;553;51.038;7.216;2024-01-27T06:49:01;17.10;;;7.50;;
1128;SDS011;553;51.038;7.216;2024-01-27T06:51:29;17.70;;;8.23;;
1128;SDS011;553;51.038;7.216;2024-01-27T06:53:56;13.80;;;6.20;;
1128;SDS011;553;51.038;7.216;2024-01-27T06:56:22;14.20;;;7.15;;
1128;SDS011;553;51.038;7.216;2024-01-27T06:58:49;22.90;;;7.50;;
1128;SDS011;553;51.038;7.216;2024-01-27T07:01:16;15.13;;;7.43;;
1128;SDS011;553;51.038;7.216;2024-01-27T07:03:42;10.77;;;6.00;;
1128;SDS011;553;51.038;7.216;2024-01-27T07:06:11;13.13;;;6.00;;
1128;SDS011;553;51.038;7.216;2024-01-27T07:08:38;21.58;;;8.07;;
1128;SDS011;553;51.038;7.216;2024-01-27T07:11:05;16.05;;;8.38;;
1128;SDS011;553;51.038;7.216;2024-01-27T07:13:32;19.70;;;8.43;;
1128;SDS011;553;51.038;7.216;2024-01-27T07:15:59;13.05;;;6.78;;
1128;SDS011;553;51.038;7.216;2024-01-27T07:18:26;15.10;;;6.93;;
1128;SDS011;553;51.038;7.216;2024-01-27T07:20:53;15.65;;;6.88;;
1128;SDS011;553;51.038;7.216;2024-01-27T07:23:21;16.70;;;8.93;;
1128;SDS011;553;51.038;7.216;2024-01-27T07:25:47;16.63;;;8.18;;
1128;SDS011;553;51.038;7.216;2024-01-27T07:28:14;11.25;;;7.00;;
1128;SDS011;553;51.038;7.216;2024-01-27T07:30:42;17.52;;;8.65;;
1128;SDS011;553;51.038;7.216;2024-01-27T07:33:09;17.92;;;7.25;;
1128;SDS011;553;51.038;7.216;2024-01-27T07:35:36;17.85;;;7.82;;
1128;SDS011;553;51.038;7.216;2024-01-27T07:38:02;17.17;;;7.50;;
1128;SDS011;553;51.038;7.216;2024-01-27T07:40:29;14.68;;;8.15;;
1128;SDS011;553;51.038;7.216;2024-01-27T07:42:56;16.60;;;7.97;;
1128;SDS011;553;51.038;7.216;2024-01-27T07:45:23;17.02;;;6.75;;
1128;SDS011;553;51.038;7.216;2024-01-27T07:47:50;12.57;;;6.85;;
1128;SDS011;553;51.038;7.216;2024-01-27T07:50:17;13.88;;;8.23;;
1128;SDS011;553;51.038;7.216;2024-01-27T07:52:44;18.63;;;8.00;;
1128;SDS011;553;51.038;7.216;2024-01-27T07:55:11;14.10;;;8.20;;
1128;SDS011;553;51.038;7.216;2024-01-27T07:57:37;14.18;;;7.55;;
1128;SDS011;553;51.038;7.216;2024-01-27T08:00:04;12.43;;;7.50;;
1128;SDS011;553;51.038;7.216;2024-01-27T08:02:33;12.52;;;7.78;;
1128;SDS011;553;51.038;7.216;2024-01-27T08:05:00;20.05;;;8.60;;
1128;SDS011;553;51.038;7.216;2024-01-27T08:07:27;13.20;;;7.97;;
1128;SDS011;553;51.038;7.216;2024-01-27T08:09:54;18.45;;;7.40;;
1128;SDS011;553;51.038;7.216;2024-01-27T08:12:21;17.92;;;7.25;;
1128;SDS011;553;51.038;7.216;2024-01-27T08:14:47;15.80;;;7.70;;
1128;SDS011;553;51.038;7.216;2024-01-27T08:17:14;15.68;;;8.63;;
1128;SDS011;553;51.038;7.216;2024-01-27T08:19:41;13.50;;;7.78;;
1128;SDS011;553;51.038;7.216;2024-01-27T08:22:08;17.17;;;7.90;;
1128;SDS011;553;51.038;7.216;2024-01-27T08:24:35;16.77;;;7.55;;
1128;SDS011;553;51.038;7.216;2024-01-27T08:27:02;17.05;;;7.47;;
1128;SDS011;553;51.038;7.216;2024-01-27T08:29:29;17.33;;;8.25;;
1128;SDS011;553;51.038;7.216;2024-01-27T08:31:56;15.77;;;7.72;;
1128;SDS011;553;51.038;7.216;2024-01-27T08:34:23;15.63;;;7.55;;
1128;SDS011;553;51.038;7.216;2024-01-27T08:36:50;18.02;;;8.75;;
1128;SDS011;553;51.038;7.216;2024-01-27T08:39:16;19.20;;;8.02;;
1128;SDS011;553;51.038;7.216;2024-01-27T08:41:43;13.75;;;7.47;;
1128;SDS011;553;51.038;7.216;2024-01-27T08:44:10;13.13;;;6.80;;
1128;SDS011;553;51.038;7.216;2024-01-27T08:46:37;15.27;;;6.13;;
1128;SDS011;553;51.038;7.216;2024-01-27T08:49:04;14.05;;;5.65;;
1128;SDS011;553;51.038;7.216;2024-01-27T08:51:31;21.73;;;5.57;;
1128;SDS011;553;51.038;7.216;2024-01-27T08:53:58;15.03;;;4.90;;
1128;SDS011;553;51.038;7.216;2024-01-27T08:56:25;12.97;;;4.70;;
1128;SDS011;553;51.038;7.216;2024-01-27T08:58:51;12.43;;;4.40;;
1128;SDS011;553;51.038;7.216;2024-01-27T09:01:19;10.33;;;4.43;;
1128;SDS011;553;51.038;7.216;2024-01-27T09:03:46;13.80;;;4.83;;
1128;SDS011;553;51.038;7.216;2024-01-27T09:06:13;11.03;;;4.97;;
1128;SDS011;553;51.038;7.216;2024-01-27T09:08:40;12.10;;;4.67;;
1128;SDS011;553;51.038;7.216;2024-01-27T09:11:07;14.27;;;4.73;;
1128;SDS011;553;51.038;7.216;2024-01-27T09:13:35;10.00;;;5.43;;
1128;SDS011;553;51.038;7.216;2024-01-27T09:16:02;13.10;;;5.20;;
1128;SDS011;553;51.038;7.216;2024-01-27T09:18:29;14.00;;;4.70;;
1128;SDS011;553;51.038;7.216;2024-01-27T09:20:56;8.00;;;4.73;;
1128;SDS011;553;51.038;7.216;2024-01-27T09:23:23;15.30;;;4.80;;
1128;SDS011;553;51.038;7.216;2024-01-27T09:25:49;7.70;;;3.87;;
1128;SDS011;553;51.038;7.216;2024-01-27T09:28:16;14.20;;;4.40;;
1128;SDS011;553;51.038;7.216;2024-01-27T09:30:43;20.90;;;4.63;;
1128;SDS011;553;51.038;7.216;2024-01-27T09:33:10;10.03;;;3.60;;
1128;SDS011;553;51.038;7.216;2024-01-27T09:35:38;15.33;;;4.27;;
1128;SDS011;553;51.038;7.216;2024-01-27T09:38:05;10.50;;;3.53;;
1128;SDS011;553;51.038;7.216;2024-01-27T09:40:38;7.83;;;3.60;;
1128;SDS011;553;51.038;7.216;2024-01-27T09:43:04;6.20;;;3.03;;
1128;SDS011;553;51.038;7.216;2024-01-27T09:45:32;15.73;;;4.13;;
1128;SDS011;553;51.038;7.216;2024-01-27T09:48:00;9.50;;;3.80;;
1128;SDS011;553;51.038;7.216;2024-01-27T09:50:27;9.17;;;3.33;;
1128;SDS011;553;51.038;7.216;2024-01-27T09:52:54;11.63;;;3.30;;
1128;SDS011;553;51.038;7.216;2024-01-27T09:55:21;9.10;;;3.30;;
1128;SDS011;553;51.038;7.216;2024-01-27T09:57:48;9.10;;;3.97;;
1128;SDS011;553;51.038;7.216;2024-01-27T10:00:15;9.60;;;3.57;;
1128;SDS011;553;51.038;7.216;2024-01-27T10:02:44;10.00;;;3.13;;
1128;SDS011;553;51.038;7.216;2024-01-27T10:05:13;6.77;;;3.77;;
1128;SDS011;553;51.038;7.216;2024-01-27T10:07:41;12.03;;;2.77;;
1128;SDS011;553;51.038;7.216;2024-01-27T10:10:08;8.33;;;4.03;;
1128;SDS011;553;51.038;7.216;2024-01-27T10:12:42;12.03;;;4.77;;
1128;SDS011;553;51.038;7.216;2024-01-27T10:15:20;10.53;;;4.17;;
1128;SDS011;553;51.038;7.216;2024-01-27T10:17:48;13.00;;;4.70;;
1128;SDS011;553;51.038;7.216;2024-01-27T10:20:15;11.30;;;3.70;;
1128;SDS011;553;51.038;7.216;2024-01-27T10:22:45;10.67;;;4.20;;
1128;SDS011;553;51.038;7.216;2024-01-27T10:25:12;10.03;;;4.27;;
1128;SDS011;553;51.038;7.216;2024-01-27T10:27:39;7.97;;;3.50;;
1128;SDS011;553;51.038;7.216;2024-01-27T10:30:06;9.43;;;3.33;;
1128;SDS011;553;51.038;7.216;2024-01-27T10:32:42;11.37;;;4.47;;
1128;SDS011;553;51.038;7.216;2024-01-27T10:35:09;11.13;;;4.20;;
1128;SDS011;553;51.038;7.216;2024-01-27T10:37:37;9.10;;;3.13;;
1128;SDS011;553;51.038;7.216;2024-01-27T10:40:04;12.37;;;3.80;;
1128;SDS011;553;51.038;7.216;2024-01-27T10:42:36;7.77;;;3.70;;
1128;SDS011;553;51.038;7.216;2024-01-27T10:45:04;11.90;;;4.53;;
1128;SDS011;553;51.038;7.216;2024-01-27T10:47:32;12.93;;;4.10;;
1128;SDS011;553;51.038;7.216;2024-01-27T10:49:59;12.63;;;3.53;;
1128;SDS011;553;51.038;7.216;2024-01-27T10:52:31;10.10;;;3.20;;
1128;SDS011;553;51.038;7.216;2024-01-27T10:54:59;16.43;;;4.03;;
1128;SDS011;553;51.038;7.216;2024-01-27T10:57:27;8.67;;;3.53;;
1128;SDS011;553;51.038;7.216;2024-01-27T10:59:56;12.60;;;5.27;;
1128;SDS011;553;51.038;7.216;2024-01-27T11:02:24;13.33;;;4.10;;
1128;SDS011;553;51.038;7.216;2024-01-27T11:04:51;10.03;;;3.50;;
1128;SDS011;553;51.038;7.216;2024-01-27T11:07:21;12.63;;;4.50;;
1128;SDS011;553;51.038;7.216;2024-01-27T11:09:49;15.20;;;3.87;;
1128;SDS011;553;51.038;7.216;2024-01-27T11:12:19;10.57;;;3.13;;
1128;SDS011;553;51.038;7.216;2024-01-27T11:14:48;11.70;;;3.50;;
1128;SDS011;553;51.038;7.216;2024-01-27T11:17:15;10.37;;;3.63;;
1128;SDS011;553;51.038;7.216;2024-01-27T11:19:44;11.50;;;3.47;;
1128;SDS011;553;51.038;7.216;2024-01-27T11:22:30;10.73;;;3.77;;
1128;SDS011;553;51.038;7.216;2024-01-27T11:27:43;12.07;;;4.07;;
1128;SDS011;553;51.038;7.216;2024-01-27T11:30:27;12.87;;;3.97;;
1128;SDS011;553;51.038;7.216;2024-01-27T11:32:56;8.90;;;3.40;;
1128;SDS011;553;51.038;7.216;2024-01-27T11:35:24;11.23;;;3.47;;
1128;SDS011;553;51.038;7.216;2024-01-27T11:37:51;14.93;;;4.20;;
1128;SDS011;553;51.038;7.216;2024-01-27T11:40:18;7.63;;;2.80;;
1128;SDS011;553;51.038;7.216;2024-01-27T11:42:55;8.53;;;3.20;;
1128;SDS011;553;51.038;7.216;2024-01-27T11:45:22;12.40;;;3.87;;
1128;SDS011;553;51.038;7.216;2024-01-27T11:47:49;8.13;;;3.30;;
1128;SDS011;553;51.038;7.216;2024-01-27T11:50:17;9.90;;;3.30;;
1128;SDS011;553;51.038;7.216;2024-01-27T11:52:44;20.73;;;5.17;;
1128;SDS011;553;51.038;7.216;2024-01-27T11:55:11;9.93;;;3.70;;
1128;SDS011;553;51.038;7.216;2024-01-27T11:57:42;12.03;;;3.40;;
1128;SDS011;553;51.038;7.216;2024-01-27T12:00:09;6.83;;;2.43;;
1128;SDS011;553;51.038;7.216;2024-01-27T12:02:37;11.20;;;3.13;;
1128;SDS011;553;51.038;7.216;2024-01-27T12:05:05;11.50;;;3.70;;
1128;SDS011;553;51.038;7.216;2024-01-27T12:07:32;9.03;;;2.63;;
1128;SDS011;553;51.038;7.216;2024-01-27T12:09:59;10.03;;;3.40;;
1128;SDS011;553;51.038;7.216;2024-01-27T12:12:27;8.87;;;3.33;;
1128;SDS011;553;51.038;7.216;2024-01-27T12:14:54;7.43;;;2.97;;
1128;SDS011;553;51.038;7.216;2024-01-27T12:17:22;10.67;;;3.00;;
1128;SDS011;553;51.038;7.216;2024-01-27T12:19:49;11.17;;;2.90;;
1128;SDS011;553;51.038;7.216;2024-01-27T12:22:22;8.10;;;2.33;;
1128;SDS011;553;51.038;7.216;2024-01-27T12:24:50;6.23;;;1.77;;
1128;SDS011;553;51.038;7.216;2024-01-27T12:27:17;9.37;;;2.53;;
1128;SDS011;553;51.038;7.216;2024-01-27T12:29:45;9.07;;;2.80;;
1128;SDS011;553;51.038;7.216;2024-01-27T12:32:14;11.30;;;2.73;;
1128;SDS011;553;51.038;7.216;2024-01-27T12:34:44;8.60;;;3.43;;
1128;SDS011;553;51.038;7.216;2024-01-27T12:37:14;13.00;;;2.93;;
1128;SDS011;553;51.038;7.216;2024-01-27T12:39:42;8.37;;;2.57;;
1128;SDS011;553;51.038;7.216;2024-01-27T12:42:11;12.03;;;2.97;;
1128;SDS011;553;51.038;7.216;2024-01-27T12:44:41;9.33;;;2.70;;
1128;SDS011;553;51.038;7.216;2024-01-27T12:47:11;10.00;;;2.80;;
1128;SDS011;553;51.038;7.216;2024-01-27T12:49:39;8.40;;;2.80;;
1128;SDS011;553;51.038;7.216;2024-01-27T12:52:07;6.93;;;2.80;;
1128;SDS011;553;51.038;7.216;2024-01-27T12:54:34;15.00;;;2.97;;
1128;SDS011;553;51.038;7.216;2024-01-27T12:57:00;6.90;;;2.40;;
1128;SDS011;553;51.038;7.216;2024-01-27T12:59:28;5.93;;;2.50;;
1128;SDS011;553;51.038;7.216;2024-01-27T13:01:55;13.57;;;2.93;;
1128;SDS011;553;51.038;7.216;2024-01-27T13:04:22;11.10;;;2.70;;
1128;SDS011;553;51.038;7.216;2024-01-27T13:06:49;12.33;;;2.80;;
1128;SDS011;553;51.038;7.216;2024-01-27T13:09:17;9.70;;;2.27;;
1128;SDS011;553;51.038;7.216;2024-01-27T13:11:44;8.57;;;2.30;;
1128;SDS011;553;51.038;7.216;2024-01-27T13:14:11;7.53;;;2.73;;
1128;SDS011;553;51.038;7.216;2024-01-27T13:16:39;7.13;;;2.60;;
1128;SDS011;553;51.038;7.216;2024-01-27T13:19:05;14.43;;;3.13;;
1128;SDS011;553;51.038;7.216;2024-01-27T13:21:32;11.67;;;3.03;;
1128;SDS011;553;51.038;7.216;2024-01-27T13:23:59;12.70;;;2.37;;
1128;SDS011;553;51.038;7.216;2024-01-27T13:26:27;11.10;;;2.80;;
1128;SDS011;553;51.038;7.216;2024-01-27T13:28:54;8.63;;;3.30;;
1128;SDS011;553;51.038;7.216;2024-01-27T13:31:21;5.73;;;2.33;;
1128;SDS011;553;51.038;7.216;2024-01-27T13:33:47;9.10;;;2.33;;
1128;SDS011;553;51.038;7.216;2024-01-27T13:36:15;10.60;;;2.97;;
1128;SDS011;553;51.038;7.216;2024-01-27T13:38:43;11.87;;;3.70;;
1128;SDS011;553;51.038;7.216;2024-01-27T13:41:10;9.53;;;3.00;;
1128;SDS011;553;51.038;7.216;2024-01-27T13:43:37;10.87;;;2.40;;
1128;SDS011;553;51.038;7.216;2024-01-27T13:46:03;11.53;;;2.93;;
1128;SDS011;553;51.038;7.216;2024-01-27T13:48:30;9.10;;;3.20;;
1128;SDS011;553;51.038;7.216;2024-01-27T13:50:57;6.60;;;2.50;;
1128;SDS011;553;51.038;7.216;2024-01-27T13:53:24;10.03;;;3.00;;
1128;SDS011;553;51.038;7.216;2024-01-27T13:56:08;9.00;;;2.87;;
1128;SDS011;553;51.038;7.216;2024-01-27T13:58:35;12.53;;;3.10;;
1128;SDS011;553;51.038;7.216;2024-01-27T14:01:02;10.20;;;2.57;;
1128;SDS011;553;51.038;7.216;2024-01-27T14:03:29;5.90;;;2.40;;
1128;SDS011;553;51.038;7.216;2024-01-27T14:05:56;9.17;;;3.03;;
1128;SDS011;553;51.038;7.216;2024-01-27T14:08:23;11.57;;;2.90;;
1128;SDS011;553;51.038;7.216;2024-01-27T14:10:50;9.83;;;3.40;;
1128;SDS011;553;51.038;7.216;2024-01-27T14:13:19;10.27;;;2.70;;
1128;SDS011;553;51.038;7.216;2024-01-27T14:15:45;8.83;;;2.73;;
1128;SDS011;553;51.038;7.216;2024-01-27T14:18:12;7.97;;;2.43;;
1128;SDS011;553;51.038;7.216;2024-01-27T14:20:47;11.27;;;2.70;;
1128;SDS011;553;51.038;7.216;2024-01-27T14:23:14;12.07;;;2.10;;
1128;SDS011;553;51.038;7.216;2024-01-27T14:25:42;7.27;;;2.30;;
1128;SDS011;553;51.038;7.216;2024-01-27T14:28:13;8.07;;;2.77;;
1128;SDS011;553;51.038;7.216;2024-01-27T14:30:40;10.17;;;2.37;;
1128;SDS011;553;51.038;7.216;2024-01-27T14:33:08;16.67;;;3.13;;
1128;SDS011;553;51.038;7.216;2024-01-27T14:35:35;9.07;;;2.70;;
1128;SDS011;553;51.038;7.216;2024-01-27T14:38:02;9.83;;;2.60;;
1128;SDS011;553;51.038;7.216;2024-01-27T14:40:30;11.37;;;2.50;;
1128;SDS011;553;51.038;7.216;2024-01-27T14:42:58;10.07;;;2.67;;
1128;SDS011;553;51.038;7.216;2024-01-27T14:45:25;11.30;;;2.63;;
1128;SDS011;553;51.038;7.216;2024-01-27T14:47:52;6.93;;;2.20;;
1128;SDS011;553;51.038;7.216;2024-01-27T14:50:23;4.80;;;1.57;;
1128;SDS011;553;51.038;7.216;2024-01-27T14:52:50;8.07;;;1.77;;
1128;SDS011;553;51.038;7.216;2024-01-27T14:55:18;10.70;;;2.57;;
1128;SDS011;553;51.038;7.216;2024-01-27T14:57:45;7.80;;;1.90;;
1128;SDS011;553;51.038;7.216;2024-01-27T15:00:12;11.10;;;2.30;;
1128;SDS011;553;51.038;7.216;2024-01-27T15:02:43;11.00;;;2.23;;
1128;SDS011;553;51.038;7.216;2024-01-27T15:05:11;11.23;;;2.53;;
1128;SDS011;553;51.038;7.216;2024-01-27T15:07:38;7.40;;;1.63;;
1128;SDS011;553;51.038;7.216;2024-01-27T15:10:08;6.00;;;2.10;;
1128;SDS011;553;51.038;7.216;2024-01-27T15:12:35;11.60;;;2.30;;
1128;SDS011;553;51.038;7.216;2024-01-27T15:15:03;8.30;;;2.60;;
1128;SDS011;553;51.038;7.216;2024-01-27T15:17:30;4.83;;;1.90;;
1128;SDS011;553;51.038;7.216;2024-01-27T15:19:57;8.13;;;2.10;;
1128;SDS011;553;51.038;7.216;2024-01-27T15:22:24;8.53;;;3.00;;
1128;SDS011;553;51.038;7.216;2024-01-27T15:24:51;9.33;;;2.20;;